sensor_id;sensor_type;location;lat;lon;timestamp;P1;durP1;ratioP1;P2;durP2;ratioP2
25980;SDS011;13772;52.996;9.124;2024-01-06T08:12:20;4.10;;;2.20;;
25980;SDS011;13772;52.996;9.124;2024-01-06T08:14:45;4.03;;;1.98;;
25980;SDS011;13772;52.996;9.124;2024-01-06T08:17:10;3.97;;;2.63;;
25980;SDS011;13772;52.996;9.124;2024-01-06T08:19:35;3.28;;;2.13;;
25980;SDS011;13772;52.996;9.124;2024-01-06T08:22:01;4.53;;;2.47;;
25980;SDS011;13772;52.996;9.124;2024-01-06T08:24:26;3.88;;;2.28;;
25980;SDS011;13772;52.996;9.124;2024-01-06T08:26:51;3.97;;;2.65;;
25980;SDS011;13772;52.996;9.124;2024-01-06T08:29:16;5.90;;;2.90;;
25980;SDS011;13772;52.996;9.124;2024-01-06T08:31:44;5.75;;;3.28;;
25980;SDS011;13772;52.996;9.124;2024-01-06T08:34:09;4.20;;;3.08;;
25980;SDS011;13772;52.996;9.124;2024-01-06T08:36:34;4.03;;;3.17;;
25980;SDS011;13772;52.996;9.124;2024-01-06T08:39:00;5.25;;;3.75;;
25980;SDS011;13772;52.996;9.124;2024-01-06T08:41:25;5.10;;;3.38;;
25980;SDS011;13772;52.996;9.124;2024-01-06T08:43:50;4.38;;;3.03;;
25980;SDS011;13772;52.996;9.124;2024-01-06T08:46:15;6.53;;;3.45;;
25980;SDS011;13772;52.996;9.124;2024-01-06T08:48:40;5.57;;;3.80;;
25980;SDS011;13772;52.996;9.124;2024-01-06T08:51:05;7.68;;;4.40;;
25980;SDS011;13772;52.996;9.124;2024-01-06T08:53:31;5.78;;;4.28;;
25980;SDS011;13772;52.996;9.124;2024-01-06T08:55:56;7.45;;;4.65;;
25980;SDS011;13772;52.996;9.124;2024-01-06T08:58:21;5.25;;;3.63;;
25980;SDS011;13772;52.996;9.124;2024-01-06T09:00:46;5.53;;;4.05;;
25980;SDS011;13772;52.996;9.124;2024-01-06T09:03:12;6.05;;;3.83;;
25980;SDS011;13772;52.996;9.124;2024-01-06T09:05:37;6.07;;;4.35;;
25980;SDS011;13772;52.996;9.124;2024-01-06T09:08:02;6.45;;;4.13;;
25980;SDS011;13772;52.996;9.124;2024-01-06T09:10:28;6.65;;;4.60;;
25980;SDS011;13772;52.996;9.124;2024-01-06T09:12:54;7.68;;;4.70;;
25980;SDS011;13772;52.996;9.124;2024-01-06T09:15:19;6.50;;;4.72;;
25980;SDS011;13772;52.996;9.124;2024-01-06T09:17:44;7.22;;;5.22;;
25980;SDS011;13772;52.996;9.124;2024-01-06T09:20:09;5.72;;;4.40;;
25980;SDS011;13772;52.996;9.124;2024-01-06T09:22:35;5.93;;;4.38;;
25980;SDS011;13772;52.996;9.124;2024-01-06T09:25:00;7.20;;;4.90;;
25980;SDS011;13772;52.996;9.124;2024-01-06T09:27:25;9.35;;;5.30;;
25980;SDS011;13772;52.996;9.124;2024-01-06T09:29:50;8.27;;;6.07;;
25980;SDS011;13772;52.996;9.124;2024-01-06T09:32:16;8.20;;;5.53;;
25980;SDS011;13772;52.996;9.124;2024-01-06T09:34:41;10.25;;;6.05;;
25980;SDS011;13772;52.996;9.124;2024-01-06T09:37:06;6.82;;;5.38;;
25980;SDS011;13772;52.996;9.124;2024-01-06T09:39:31;10.85;;;6.80;;
25980;SDS011;13772;52.996;9.124;2024-01-06T09:41:57;9.23;;;6.03;;
25980;SDS011;13772;52.996;9.124;2024-01-06T09:44:22;8.50;;;6.57;;
25980;SDS011;13772;52.996;9.124;2024-01-06T09:46:47;9.20;;;6.78;;
25980;SDS011;13772;52.996;9.124;2024-01-06T09:49:12;10.30;;;6.07;;
25980;SDS011;13772;52.996;9.124;2024-01-06T09:51:40;9.55;;;6.53;;
25980;SDS011;13772;52.996;9.124;2024-01-06T09:54:07;12.18;;;6.80;;
25980;SDS011;13772;52.996;9.124;2024-01-06T09:56:33;9.25;;;6.63;;
25980;SDS011;13772;52.996;9.124;2024-01-06T09:58:58;8.82;;;6.28;;
25980;SDS011;13772;52.996;9.124;2024-01-06T10:01:24;9.77;;;6.18;;
25980;SDS011;13772;52.996;9.124;2024-01-06T10:03:49;8.20;;;6.25;;
25980;SDS011;13772;52.996;9.124;2024-01-06T10:06:14;11.88;;;7.32;;
25980;SDS011;13772;52.996;9.124;2024-01-06T10:08:43;9.23;;;6.05;;
25980;SDS011;13772;52.996;9.124;2024-01-06T10:11:09;9.75;;;6.63;;
25980;SDS011;13772;52.996;9.124;2024-01-06T10:13:35;11.68;;;7.45;;
25980;SDS011;13772;52.996;9.124;2024-01-06T10:16:02;9.90;;;6.88;;
25980;SDS011;13772;52.996;9.124;2024-01-06T10:18:27;11.55;;;7.95;;
25980;SDS011;13772;52.996;9.124;2024-01-06T10:20:54;10.65;;;7.10;;
25980;SDS011;13772;52.996;9.124;2024-01-06T10:23:21;12.70;;;9.03;;
25980;SDS011;13772;52.996;9.124;2024-01-06T10:25:47;12.02;;;7.75;;
25980;SDS011;13772;52.996;9.124;2024-01-06T10:28:12;12.18;;;8.25;;
25980;SDS011;13772;52.996;9.124;2024-01-06T10:30:38;13.85;;;7.82;;
25980;SDS011;13772;52.996;9.124;2024-01-06T10:33:08;12.70;;;8.50;;
25980;SDS011;13772;52.996;9.124;2024-01-06T10:35:33;15.30;;;8.88;;
25980;SDS011;13772;52.996;9.124;2024-01-06T10:37:58;15.90;;;9.15;;
25980;SDS011;13772;52.996;9.124;2024-01-06T10:40:24;14.95;;;8.77;;
25980;SDS011;13772;52.996;9.124;2024-01-06T10:42:49;12.77;;;8.38;;
25980;SDS011;13772;52.996;9.124;2024-01-06T10:45:14;13.93;;;9.07;;
25980;SDS011;13772;52.996;9.124;2024-01-06T10:47:40;14.00;;;9.18;;
25980;SDS011;13772;52.996;9.124;2024-01-06T10:50:06;13.63;;;9.70;;
25980;SDS011;13772;52.996;9.124;2024-01-06T10:52:32;16.17;;;10.75;;
25980;SDS011;13772;52.996;9.124;2024-01-06T10:54:58;14.73;;;9.23;;
25980;SDS011;13772;52.996;9.124;2024-01-06T10:57:23;13.52;;;9.02;;
25980;SDS011;13772;52.996;9.124;2024-01-06T10:59:50;14.55;;;9.93;;
25980;SDS011;13772;52.996;9.124;2024-01-06T11:02:15;14.63;;;10.10;;
25980;SDS011;13772;52.996;9.124;2024-01-06T11:04:47;17.38;;;11.10;;
25980;SDS011;13772;52.996;9.124;2024-01-06T11:07:16;15.25;;;10.35;;
25980;SDS011;13772;52.996;9.124;2024-01-06T11:09:50;18.60;;;10.82;;
25980;SDS011;13772;52.996;9.124;2024-01-06T11:12:16;19.88;;;12.25;;
25980;SDS011;13772;52.996;9.124;2024-01-06T11:14:41;17.80;;;10.65;;
25980;SDS011;13772;52.996;9.124;2024-01-06T11:17:07;18.83;;;11.65;;
25980;SDS011;13772;52.996;9.124;2024-01-06T11:24:46;18.83;;;10.95;;
25980;SDS011;13772;52.996;9.124;2024-01-06T11:27:17;20.60;;;12.77;;
25980;SDS011;13772;52.996;9.124;2024-01-06T11:29:43;17.58;;;10.93;;
25980;SDS011;13772;52.996;9.124;2024-01-06T11:32:16;17.77;;;11.85;;
25980;SDS011;13772;52.996;9.124;2024-01-06T11:34:41;18.55;;;11.93;;
25980;SDS011;13772;52.996;9.124;2024-01-06T11:37:06;19.50;;;13.37;;
25980;SDS011;13772;52.996;9.124;2024-01-06T11:39:37;18.23;;;11.40;;
25980;SDS011;13772;52.996;9.124;2024-01-06T11:42:05;22.35;;;14.30;;
25980;SDS011;13772;52.996;9.124;2024-01-06T11:44:34;23.13;;;14.45;;
25980;SDS011;13772;52.996;9.124;2024-01-06T11:46:59;22.40;;;14.82;;
25980;SDS011;13772;52.996;9.124;2024-01-06T11:49:26;22.20;;;13.45;;
25980;SDS011;13772;52.996;9.124;2024-01-06T11:51:52;21.13;;;12.88;;
25980;SDS011;13772;52.996;9.124;2024-01-06T11:54:18;20.40;;;12.45;;
25980;SDS011;13772;52.996;9.124;2024-01-06T11:56:43;19.65;;;12.48;;
25980;SDS011;13772;52.996;9.124;2024-01-06T11:59:08;19.77;;;13.77;;
25980;SDS011;13772;52.996;9.124;2024-01-06T12:01:39;22.15;;;13.10;;
25980;SDS011;13772;52.996;9.124;2024-01-06T12:04:05;22.13;;;13.93;;
25980;SDS011;13772;52.996;9.124;2024-01-06T12:06:30;21.98;;;13.50;;
25980;SDS011;13772;52.996;9.124;2024-01-06T12:09:10;20.20;;;13.00;;
25980;SDS011;13772;52.996;9.124;2024-01-06T12:11:35;19.70;;;12.30;;
25980;SDS011;13772;52.996;9.124;2024-01-06T12:14:02;26.73;;;14.97;;
25980;SDS011;13772;52.996;9.124;2024-01-06T12:16:27;20.65;;;12.48;;
25980;SDS011;13772;52.996;9.124;2024-01-06T12:18:54;21.38;;;12.02;;
25980;SDS011;13772;52.996;9.124;2024-01-06T12:21:24;25.20;;;15.07;;
25980;SDS011;13772;52.996;9.124;2024-01-06T12:23:49;26.77;;;14.97;;
25980;SDS011;13772;52.996;9.124;2024-01-06T12:26:16;25.98;;;15.57;;
25980;SDS011;13772;52.996;9.124;2024-01-06T12:28:44;24.67;;;14.82;;
25980;SDS011;13772;52.996;9.124;2024-01-06T12:31:09;22.85;;;14.88;;
25980;SDS011;13772;52.996;9.124;2024-01-06T12:33:34;27.30;;;15.63;;
25980;SDS011;13772;52.996;9.124;2024-01-06T12:36:02;26.03;;;16.67;;
25980;SDS011;13772;52.996;9.124;2024-01-06T12:38:27;27.42;;;17.40;;
25980;SDS011;13772;52.996;9.124;2024-01-06T12:40:55;27.48;;;17.15;;
25980;SDS011;13772;52.996;9.124;2024-01-06T12:43:20;25.20;;;16.93;;
25980;SDS011;13772;52.996;9.124;2024-01-06T12:45:45;22.87;;;15.53;;
25980;SDS011;13772;52.996;9.124;2024-01-06T12:48:10;21.98;;;14.90;;
25980;SDS011;13772;52.996;9.124;2024-01-06T12:50:36;22.73;;;16.37;;
25980;SDS011;13772;52.996;9.124;2024-01-06T12:53:02;22.60;;;15.07;;
25980;SDS011;13772;52.996;9.124;2024-01-06T12:55:27;22.20;;;15.30;;
25980;SDS011;13772;52.996;9.124;2024-01-06T12:57:52;21.70;;;14.73;;
25980;SDS011;13772;52.996;9.124;2024-01-06T13:00:18;22.83;;;16.17;;
25980;SDS011;13772;52.996;9.124;2024-01-06T13:02:43;21.08;;;14.68;;
25980;SDS011;13772;52.996;9.124;2024-01-06T13:05:08;25.35;;;15.52;;
25980;SDS011;13772;52.996;9.124;2024-01-06T13:07:34;20.53;;;15.00;;
25980;SDS011;13772;52.996;9.124;2024-01-06T13:09:59;20.10;;;13.25;;
25980;SDS011;13772;52.996;9.124;2024-01-06T13:12:25;20.30;;;13.27;;
25980;SDS011;13772;52.996;9.124;2024-01-06T13:14:50;20.05;;;12.20;;
25980;SDS011;13772;52.996;9.124;2024-01-06T13:17:16;19.97;;;13.63;;
25980;SDS011;13772;52.996;9.124;2024-01-06T13:19:41;20.27;;;13.83;;
25980;SDS011;13772;52.996;9.124;2024-01-06T13:22:07;20.20;;;13.13;;
25980;SDS011;13772;52.996;9.124;2024-01-06T13:24:32;23.43;;;14.83;;
25980;SDS011;13772;52.996;9.124;2024-01-06T13:26:57;23.95;;;14.80;;
25980;SDS011;13772;52.996;9.124;2024-01-06T13:29:24;15.23;;;11.37;;
25980;SDS011;13772;52.996;9.124;2024-01-06T13:31:49;18.33;;;11.68;;
25980;SDS011;13772;52.996;9.124;2024-01-06T13:34:14;16.02;;;11.45;;
25980;SDS011;13772;52.996;9.124;2024-01-06T13:36:39;17.35;;;11.73;;
25980;SDS011;13772;52.996;9.124;2024-01-06T13:39:04;17.70;;;11.87;;
25980;SDS011;13772;52.996;9.124;2024-01-06T13:41:31;16.52;;;11.70;;
25980;SDS011;13772;52.996;9.124;2024-01-06T13:43:56;18.90;;;13.00;;
25980;SDS011;13772;52.996;9.124;2024-01-06T13:46:22;18.03;;;11.77;;
25980;SDS011;13772;52.996;9.124;2024-01-06T13:48:47;21.27;;;12.33;;
25980;SDS011;13772;52.996;9.124;2024-01-06T13:51:12;17.87;;;12.77;;
25980;SDS011;13772;52.996;9.124;2024-01-06T13:53:37;19.70;;;13.13;;
25980;SDS011;13772;52.996;9.124;2024-01-06T13:56:03;19.80;;;13.20;;
25980;SDS011;13772;52.996;9.124;2024-01-06T13:58:28;19.13;;;12.77;;
25980;SDS011;13772;52.996;9.124;2024-01-06T14:00:54;18.35;;;12.55;;
25980;SDS011;13772;52.996;9.124;2024-01-06T16:07:25;16.53;;;11.93;;
25980;SDS011;13772;52.996;9.124;2024-01-06T16:09:51;13.30;;;9.23;;
25980;SDS011;13772;52.996;9.124;2024-01-06T16:12:16;12.90;;;9.47;;
25980;SDS011;13772;52.996;9.124;2024-01-06T16:14:41;13.05;;;9.48;;
25980;SDS011;13772;52.996;9.124;2024-01-06T16:17:06;14.27;;;10.23;;
25980;SDS011;13772;52.996;9.124;2024-01-06T16:19:32;15.57;;;10.97;;
25980;SDS011;13772;52.996;9.124;2024-01-06T16:21:58;14.63;;;11.00;;
25980;SDS011;13772;52.996;9.124;2024-01-06T16:24:25;14.95;;;10.60;;
25980;SDS011;13772;52.996;9.124;2024-01-06T16:26:51;14.13;;;10.20;;
25980;SDS011;13772;52.996;9.124;2024-01-06T16:29:17;14.10;;;10.77;;
25980;SDS011;13772;52.996;9.124;2024-01-06T16:31:42;15.98;;;9.80;;
25980;SDS011;13772;52.996;9.124;2024-01-06T16:34:07;19.75;;;11.43;;
25980;SDS011;13772;52.996;9.124;2024-01-06T16:36:32;16.00;;;10.88;;
25980;SDS011;13772;52.996;9.124;2024-01-06T16:38:59;15.50;;;10.63;;
25980;SDS011;13772;52.996;9.124;2024-01-06T16:41:24;14.45;;;10.23;;
25980;SDS011;13772;52.996;9.124;2024-01-06T16:43:51;16.67;;;11.35;;
25980;SDS011;13772;52.996;9.124;2024-01-06T16:46:16;17.83;;;11.43;;
25980;SDS011;13772;52.996;9.124;2024-01-06T16:48:41;13.90;;;10.32;;
25980;SDS011;13772;52.996;9.124;2024-01-06T16:51:07;16.92;;;10.88;;
25980;SDS011;13772;52.996;9.124;2024-01-06T16:53:33;15.53;;;10.17;;
25980;SDS011;13772;52.996;9.124;2024-01-06T16:55:59;16.10;;;11.38;;
25980;SDS011;13772;52.996;9.124;2024-01-06T16:58:24;16.00;;;11.65;;
25980;SDS011;13772;52.996;9.124;2024-01-06T17:00:49;19.10;;;13.43;;
25980;SDS011;13772;52.996;9.124;2024-01-06T17:03:15;14.75;;;10.02;;
25980;SDS011;13772;52.996;9.124;2024-01-06T17:05:40;14.25;;;10.00;;
25980;SDS011;13772;52.996;9.124;2024-01-06T17:08:05;17.00;;;11.10;;
25980;SDS011;13772;52.996;9.124;2024-01-06T17:10:30;13.90;;;10.52;;
25980;SDS011;13772;52.996;9.124;2024-01-06T17:12:55;15.77;;;10.80;;
25980;SDS011;13772;52.996;9.124;2024-01-06T17:15:21;15.97;;;10.13;;
25980;SDS011;13772;52.996;9.124;2024-01-06T17:17:51;12.93;;;8.43;;
25980;SDS011;13772;52.996;9.124;2024-01-06T17:20:17;14.63;;;9.97;;
25980;SDS011;13772;52.996;9.124;2024-01-06T17:22:42;15.70;;;9.82;;
25980;SDS011;13772;52.996;9.124;2024-01-06T17:25:08;13.77;;;9.23;;
25980;SDS011;13772;52.996;9.124;2024-01-06T17:27:35;15.73;;;10.57;;
25980;SDS011;13772;52.996;9.124;2024-01-06T17:30:00;14.00;;;9.82;;
25980;SDS011;13772;52.996;9.124;2024-01-06T17:32:25;16.70;;;10.53;;
25980;SDS011;13772;52.996;9.124;2024-01-06T17:34:50;16.30;;;10.90;;
25980;SDS011;13772;52.996;9.124;2024-01-06T17:37:16;13.47;;;9.60;;
25980;SDS011;13772;52.996;9.124;2024-01-06T17:39:41;15.13;;;9.93;;
25980;SDS011;13772;52.996;9.124;2024-01-06T17:42:06;17.80;;;11.07;;
25980;SDS011;13772;52.996;9.124;2024-01-06T17:44:32;15.57;;;10.20;;
25980;SDS011;13772;52.996;9.124;2024-01-06T17:46:58;13.93;;;9.80;;
25980;SDS011;13772;52.996;9.124;2024-01-06T17:49:23;13.70;;;9.67;;
25980;SDS011;13772;52.996;9.124;2024-01-06T17:51:49;14.33;;;10.33;;
25980;SDS011;13772;52.996;9.124;2024-01-06T17:54:14;14.67;;;9.47;;
25980;SDS011;13772;52.996;9.124;2024-01-06T17:56:39;15.53;;;9.27;;
25980;SDS011;13772;52.996;9.124;2024-01-06T17:59:04;18.50;;;11.93;;
25980;SDS011;13772;52.996;9.124;2024-01-06T18:01:30;16.53;;;11.70;;
25980;SDS011;13772;52.996;9.124;2024-01-06T18:03:55;20.40;;;12.87;;
25980;SDS011;13772;52.996;9.124;2024-01-06T18:06:20;15.40;;;11.05;;
25980;SDS011;13772;52.996;9.124;2024-01-06T18:08:46;14.43;;;9.93;;
25980;SDS011;13772;52.996;9.124;2024-01-06T18:11:11;22.53;;;14.43;;
25980;SDS011;13772;52.996;9.124;2024-01-06T18:13:36;20.63;;;11.57;;
25980;SDS011;13772;52.996;9.124;2024-01-06T18:16:01;21.00;;;13.20;;
25980;SDS011;13772;52.996;9.124;2024-01-06T18:18:27;14.20;;;9.70;;
25980;SDS011;13772;52.996;9.124;2024-01-06T18:20:52;21.10;;;13.23;;
25980;SDS011;13772;52.996;9.124;2024-01-06T18:23:17;22.83;;;12.80;;
25980;SDS011;13772;52.996;9.124;2024-01-06T18:25:42;16.13;;;10.50;;
25980;SDS011;13772;52.996;9.124;2024-01-06T18:28:08;15.20;;;9.73;;
25980;SDS011;13772;52.996;9.124;2024-01-06T18:30:33;17.97;;;11.37;;
25980;SDS011;13772;52.996;9.124;2024-01-06T18:32:58;18.60;;;11.93;;
25980;SDS011;13772;52.996;9.124;2024-01-06T18:35:24;17.23;;;11.70;;
25980;SDS011;13772;52.996;9.124;2024-01-06T18:37:49;16.93;;;10.37;;
25980;SDS011;13772;52.996;9.124;2024-01-06T18:40:14;17.50;;;11.87;;
25980;SDS011;13772;52.996;9.124;2024-01-06T18:42:39;16.83;;;10.37;;
25980;SDS011;13772;52.996;9.124;2024-01-06T18:45:05;16.13;;;10.17;;
25980;SDS011;13772;52.996;9.124;2024-01-06T18:47:30;16.10;;;10.60;;
25980;SDS011;13772;52.996;9.124;2024-01-06T18:49:56;13.00;;;9.13;;
25980;SDS011;13772;52.996;9.124;2024-01-06T18:52:21;16.05;;;9.20;;
25980;SDS011;13772;52.996;9.124;2024-01-06T18:54:46;15.20;;;9.40;;
25980;SDS011;13772;52.996;9.124;2024-01-06T18:57:11;15.03;;;8.50;;
25980;SDS011;13772;52.996;9.124;2024-01-06T18:59:39;12.60;;;8.23;;
25980;SDS011;13772;52.996;9.124;2024-01-06T19:02:04;13.63;;;8.47;;
25980;SDS011;13772;52.996;9.124;2024-01-06T19:04:31;13.57;;;8.30;;
25980;SDS011;13772;52.996;9.124;2024-01-06T19:06:57;13.33;;;8.20;;
25980;SDS011;13772;52.996;9.124;2024-01-06T19:09:22;13.03;;;8.43;;
25980;SDS011;13772;52.996;9.124;2024-01-06T19:11:47;12.87;;;8.03;;
25980;SDS011;13772;52.996;9.124;2024-01-06T19:14:13;14.30;;;9.07;;
25980;SDS011;13772;52.996;9.124;2024-01-06T19:16:38;16.43;;;9.67;;
25980;SDS011;13772;52.996;9.124;2024-01-06T19:19:03;17.93;;;9.80;;
25980;SDS011;13772;52.996;9.124;2024-01-06T19:21:29;13.87;;;9.67;;
25980;SDS011;13772;52.996;9.124;2024-01-06T19:23:54;16.60;;;10.50;;
25980;SDS011;13772;52.996;9.124;2024-01-06T19:26:19;15.73;;;9.60;;
25980;SDS011;13772;52.996;9.124;2024-01-06T19:28:44;12.63;;;7.73;;
25980;SDS011;13772;52.996;9.124;2024-01-06T19:31:10;12.87;;;7.90;;
25980;SDS011;13772;52.996;9.124;2024-01-06T19:33:35;11.07;;;7.50;;
25980;SDS011;13772;52.996;9.124;2024-01-06T19:36:00;17.67;;;9.77;;
25980;SDS011;13772;52.996;9.124;2024-01-06T19:38:27;15.77;;;8.30;;
25980;SDS011;13772;52.996;9.124;2024-01-06T19:40:52;13.23;;;8.33;;
25980;SDS011;13772;52.996;9.124;2024-01-06T19:43:17;13.40;;;8.03;;
25980;SDS011;13772;52.996;9.124;2024-01-06T19:45:43;14.60;;;9.43;;
25980;SDS011;13772;52.996;9.124;2024-01-06T19:48:08;16.33;;;9.83;;
25980;SDS011;13772;52.996;9.124;2024-01-06T19:50:36;16.30;;;9.90;;
25980;SDS011;13772;52.996;9.124;2024-01-06T19:53:02;12.20;;;7.87;;
25980;SDS011;13772;52.996;9.124;2024-01-06T19:55:27;15.47;;;9.20;;
25980;SDS011;13772;52.996;9.124;2024-01-06T19:57:52;13.63;;;8.57;;
25980;SDS011;13772;52.996;9.124;2024-01-06T20:00:18;13.80;;;8.23;;
25980;SDS011;13772;52.996;9.124;2024-01-06T20:02:43;11.10;;;7.27;;
25980;SDS011;13772;52.996;9.124;2024-01-06T20:05:10;13.13;;;9.30;;
25980;SDS011;13772;52.996;9.124;2024-01-06T20:07:35;12.83;;;7.70;;
25980;SDS011;13772;52.996;9.124;2024-01-06T20:10:01;13.10;;;7.30;;
25980;SDS011;13772;52.996;9.124;2024-01-06T20:12:26;11.67;;;7.90;;
25980;SDS011;13772;52.996;9.124;2024-01-06T20:14:51;11.10;;;7.07;;
25980;SDS011;13772;52.996;9.124;2024-01-06T20:17:22;13.20;;;7.80;;
25980;SDS011;13772;52.996;9.124;2024-01-06T20:19:47;12.23;;;8.33;;
25980;SDS011;13772;52.996;9.124;2024-01-06T20:22:13;13.00;;;9.23;;
25980;SDS011;13772;52.996;9.124;2024-01-06T20:24:38;10.70;;;7.70;;
25980;SDS011;13772;52.996;9.124;2024-01-06T20:27:05;18.30;;;11.20;;
25980;SDS011;13772;52.996;9.124;2024-01-06T20:29:30;15.83;;;9.90;;
25980;SDS011;13772;52.996;9.124;2024-01-06T20:31:55;11.30;;;7.10;;
25980;SDS011;13772;52.996;9.124;2024-01-06T20:34:20;13.77;;;8.30;;
25980;SDS011;13772;52.996;9.124;2024-01-06T20:36:45;12.03;;;7.67;;
25980;SDS011;13772;52.996;9.124;2024-01-06T20:39:11;15.10;;;8.43;;
25980;SDS011;13772;52.996;9.124;2024-01-06T20:41:37;9.77;;;6.90;;
25980;SDS011;13772;52.996;9.124;2024-01-06T20:44:02;13.07;;;8.13;;
25980;SDS011;13772;52.996;9.124;2024-01-06T20:46:28;11.77;;;7.83;;
25980;SDS011;13772;52.996;9.124;2024-01-06T20:48:54;13.77;;;8.67;;
25980;SDS011;13772;52.996;9.124;2024-01-06T20:51:19;13.60;;;8.80;;
25980;SDS011;13772;52.996;9.124;2024-01-06T20:53:44;11.20;;;7.80;;
25980;SDS011;13772;52.996;9.124;2024-01-06T20:56:09;15.50;;;9.17;;
25980;SDS011;13772;52.996;9.124;2024-01-06T20:58:35;12.90;;;9.00;;
25980;SDS011;13772;52.996;9.124;2024-01-06T21:01:01;15.53;;;9.93;;
25980;SDS011;13772;52.996;9.124;2024-01-06T21:03:26;13.80;;;9.67;;
25980;SDS011;13772;52.996;9.124;2024-01-06T21:05:51;15.50;;;8.70;;
25980;SDS011;13772;52.996;9.124;2024-01-06T21:08:16;12.83;;;8.60;;
25980;SDS011;13772;52.996;9.124;2024-01-06T21:10:42;14.87;;;9.17;;
25980;SDS011;13772;52.996;9.124;2024-01-06T21:13:08;14.70;;;9.40;;
25980;SDS011;13772;52.996;9.124;2024-01-06T21:15:33;16.83;;;9.53;;
25980;SDS011;13772;52.996;9.124;2024-01-06T21:17:58;14.87;;;9.57;;
25980;SDS011;13772;52.996;9.124;2024-01-06T21:20:23;13.77;;;9.37;;
25980;SDS011;13772;52.996;9.124;2024-01-06T21:22:48;14.40;;;9.23;;
25980;SDS011;13772;52.996;9.124;2024-01-06T21:25:20;13.30;;;8.97;;
25980;SDS011;13772;52.996;9.124;2024-01-06T21:27:46;15.00;;;9.20;;
25980;SDS011;13772;52.996;9.124;2024-01-06T21:30:11;14.20;;;8.63;;
25980;SDS011;13772;52.996;9.124;2024-01-06T21:32:36;15.47;;;9.63;;
25980;SDS011;13772;52.996;9.124;2024-01-06T21:35:02;16.27;;;9.83;;
25980;SDS011;13772;52.996;9.124;2024-01-06T21:37:29;12.73;;;9.53;;
25980;SDS011;13772;52.996;9.124;2024-01-06T21:39:54;14.10;;;8.40;;
25980;SDS011;13772;52.996;9.124;2024-01-06T21:42:19;15.50;;;9.97;;
25980;SDS011;13772;52.996;9.124;2024-01-06T21:44:44;15.23;;;9.43;;
25980;SDS011;13772;52.996;9.124;2024-01-06T21:47:09;18.07;;;10.77;;
25980;SDS011;13772;52.996;9.124;2024-01-06T21:49:35;19.77;;;11.50;;
25980;SDS011;13772;52.996;9.124;2024-01-06T21:52:00;15.83;;;9.27;;
25980;SDS011;13772;52.996;9.124;2024-01-06T21:54:25;15.30;;;9.33;;
25980;SDS011;13772;52.996;9.124;2024-01-06T21:56:50;12.53;;;9.17;;
25980;SDS011;13772;52.996;9.124;2024-01-06T21:59:15;13.73;;;9.10;;
25980;SDS011;13772;52.996;9.124;2024-01-06T22:01:41;14.33;;;8.80;;
25980;SDS011;13772;52.996;9.124;2024-01-06T22:04:08;11.77;;;9.20;;
25980;SDS011;13772;52.996;9.124;2024-01-06T22:06:34;14.13;;;8.37;;
25980;SDS011;13772;52.996;9.124;2024-01-06T22:09:00;14.43;;;8.90;;
25980;SDS011;13772;52.996;9.124;2024-01-06T22:11:25;14.23;;;9.27;;
25980;SDS011;13772;52.996;9.124;2024-01-06T22:13:50;15.07;;;8.90;;
25980;SDS011;13772;52.996;9.124;2024-01-06T22:16:15;15.10;;;8.80;;
25980;SDS011;13772;52.996;9.124;2024-01-06T22:18:41;16.20;;;8.90;;
25980;SDS011;13772;52.996;9.124;2024-01-06T22:21:06;16.20;;;9.70;;
25980;SDS011;13772;52.996;9.124;2024-01-06T22:23:32;14.10;;;8.67;;
25980;SDS011;13772;52.996;9.124;2024-01-06T22:25:57;12.80;;;8.00;;
25980;SDS011;13772;52.996;9.124;2024-01-06T22:28:22;12.53;;;8.30;;
25980;SDS011;13772;52.996;9.124;2024-01-06T22:30:47;12.90;;;8.07;;
25980;SDS011;13772;52.996;9.124;2024-01-06T22:33:13;13.83;;;8.80;;
25980;SDS011;13772;52.996;9.124;2024-01-06T22:35:39;11.67;;;7.47;;
25980;SDS011;13772;52.996;9.124;2024-01-06T22:38:04;14.87;;;9.30;;
25980;SDS011;13772;52.996;9.124;2024-01-06T22:40:29;14.43;;;9.20;;
25980;SDS011;13772;52.996;9.124;2024-01-06T22:42:54;16.23;;;9.43;;
25980;SDS011;13772;52.996;9.124;2024-01-06T22:45:19;17.43;;;9.17;;
25980;SDS011;13772;52.996;9.124;2024-01-06T22:47:45;14.63;;;9.47;;
25980;SDS011;13772;52.996;9.124;2024-01-06T22:50:10;12.80;;;8.87;;
25980;SDS011;13772;52.996;9.124;2024-01-06T22:52:35;13.53;;;8.67;;
25980;SDS011;13772;52.996;9.124;2024-01-06T22:55:00;15.90;;;9.53;;
